Time;durP1;ratioP1;P1;durP2;ratioP2;P2;SDS_P1;SDS_P2;PMS_P1;PMS_P2;Temp;Humidity;BMP_temperature;BMP_pressure;BME280_temperature;BME280_humidity;BME280_pressure;Samples;Min_cycle;Max_cycle;Signal;HPM_P1;HPM_P2
2021/11/02 00:00:35;;;;;;;56.58;26.08;;;;;;;7.28;82.38;100045.56;5070615;28;20044;-61
2021/11/02 00:03:02;;;;;;;56.28;25.50;;;;;;;7.29;82.43;100041.25;5073281;28;20071;-59
2021/11/02 00:05:28;;;;;;;50.58;25.35;;;;;;;7.14;81.98;100030.28;5072770;28;20495;-60
2021/11/02 00:07:54;;;;;;;54.25;26.13;;;;;;;7.26;82.09;100044.75;5076766;28;20551;-61
2021/11/02 00:10:21;;;;;;;81.75;28.15;;;;;;;7.24;82.20;100038.75;5084283;28;20044;-60
2021/11/02 00:12:47;;;;;;;52.53;27.02;;;;;;;7.07;82.73;100017.44;5088116;28;20078;-61
2021/11/02 00:15:13;;;;;;;62.00;28.60;;;;;;;7.25;83.00;100045.63;5089287;28;20573;-60
2021/11/02 00:17:41;;;;;;;65.35;26.77;;;;;;;7.27;83.12;100056.81;5082357;28;20063;-60
2021/11/02 00:20:11;;;;;;;70.88;29.58;;;;;;;7.29;82.76;100036.09;5071807;28;20749;-59
2021/11/02 00:22:38;;;;;;;88.25;32.97;;;;;;;7.22;83.19;100041.34;5095038;28;20037;-62
2021/11/02 00:25:06;;;;;;;74.68;32.53;;;;;;;7.23;83.03;100049.97;5056571;28;20542;-61
2021/11/02 00:27:37;;;;;;;79.80;29.73;;;;;;;7.27;82.60;100045.63;5102049;28;20044;-61
2021/11/02 00:30:10;;;;;;;106.82;31.40;;;;;;;7.33;82.47;100041.19;5086772;28;20040;-60
2021/11/02 00:32:37;;;;;;;96.57;31.08;;;;;;;7.32;81.74;100036.91;5089165;28;20528;-61
2021/11/02 00:35:05;;;;;;;140.02;32.75;;;;;;;7.17;81.85;100017.28;5072219;28;20046;-62
2021/11/02 00:37:31;;;;;;;65.60;29.73;;;;;;;7.18;82.38;100025.91;5089040;28;20066;-61
2021/11/02 00:39:57;;;;;;;76.35;30.42;;;;;;;7.14;83.19;100032.00;5097084;28;20485;-62
2021/11/02 00:42:39;;;;;;;82.78;29.52;;;;;;;7.13;83.12;100028.56;5110645;28;20122;-61
2021/11/02 00:45:09;;;;;;;54.97;26.73;;;;;;;7.13;83.02;100035.47;5096194;28;20530;-63
2021/11/02 00:47:35;;;;;;;60.90;27.23;;;;;;;7.16;82.35;100025.09;5068438;28;20142;-61
2021/11/02 00:50:08;;;;;;;65.32;27.48;;;;;;;7.13;82.29;100025.97;5071344;28;20136;-60
2021/11/02 00:52:34;;;;;;;72.38;27.55;;;;;;;7.11;82.01;100016.56;5088785;28;20040;-61
2021/11/02 00:55:00;;;;;;;57.97;26.70;;;;;;;7.18;82.31;100025.91;5071463;28;20515;-60
2021/11/02 00:57:29;;;;;;;57.90;27.03;;;;;;;7.16;82.80;100025.94;5089837;28;20181;-61
2021/11/02 00:59:55;;;;;;;60.42;24.60;;;;;;;7.16;82.68;100025.09;5089102;28;20134;-62
2021/11/02 01:02:21;;;;;;;65.53;26.38;;;;;;;7.17;83.03;100034.56;5088243;28;20601;-62
2021/11/02 01:04:47;;;;;;;59.50;26.30;;;;;;;7.15;82.82;100031.13;5089381;28;20042;-61
2021/11/02 01:07:13;;;;;;;61.90;27.88;;;;;;;7.16;82.51;100025.94;5088470;28;20051;-61
2021/11/02 01:09:40;;;;;;;71.88;27.90;;;;;;;7.19;82.81;100035.38;5068044;28;20142;-61
2021/11/02 01:12:06;;;;;;;55.72;26.17;;;;;;;7.20;82.68;100032.78;5083964;28;20040;-61
2021/11/02 05:08:24;;;;;;;68.60;26.27;;;;;;;5.99;84.65;100054.97;5042443;28;20032;-61
2021/11/02 05:47:00;;;;;;;105.35;31.50;;;;;;;6.20;81.40;100067.66;5072588;28;20071;-62
2021/11/02 06:00:13;;;;;;;58.08;26.52;;;;;;;6.28;81.70;100070.16;5069209;28;20040;-61
2021/11/02 06:28:31;;;;;;;59.13;29.02;;;;;;;6.56;80.48;100076.72;5061633;28;20131;-61
2021/11/02 06:30:44;;;;;;;74.68;30.40;;;;;;;6.70;80.59;100079.13;5050276;28;20728;-61
2021/11/02 06:50:14;;;;;;;80.82;30.67;;;;;;;6.97;78.88;100070.16;5052466;28;20090;-62
2021/11/02 06:53:29;;;;;;;72.75;31.27;;;;;;;7.08;78.67;100086.38;5062297;28;20086;-64
2021/11/02 07:15:42;;;;;;;77.28;34.05;;;;;;;7.22;77.06;100100.00;5093808;28;20039;-63
2021/11/02 07:18:15;;;;;;;74.00;30.20;;;;;;;7.29;76.79;100095.56;5093379;28;20525;-63
2021/11/02 07:20:51;;;;;;;77.70;32.17;;;;;;;7.26;76.90;100098.22;5109885;28;20047;-67
2021/11/02 07:23:43;;;;;;;77.43;30.55;;;;;;;7.31;76.52;100094.69;5090829;28;20131;-64
2021/11/02 07:26:22;;;;;;;83.97;31.80;;;;;;;7.35;76.08;100092.91;5084193;28;20136;-64
2021/11/02 08:45:05;;;;;;;86.25;37.25;;;;;;;8.09;72.36;100105.50;5088189;28;20071;-49
2021/11/02 08:47:40;;;;;;;90.63;36.85;;;;;;;8.03;72.28;100089.19;5089350;28;20039;-51
2021/11/02 08:50:08;;;;;;;86.95;37.60;;;;;;;8.17;72.03;100104.47;5072373;28;20071;-51
2021/11/02 08:52:34;;;;;;;90.63;38.10;;;;;;;8.21;72.21;100100.97;5090335;28;20481;-51
2021/11/02 08:55:01;;;;;;;91.35;38.58;;;;;;;8.21;71.98;100093.22;5090086;28;20039;-53
2021/11/02 08:57:28;;;;;;;92.88;39.40;;;;;;;8.22;71.67;100100.94;5087709;28;20087;-50
2021/11/02 08:59:55;;;;;;;91.55;38.42;;;;;;;8.25;71.82;100100.03;5088127;28;20039;-49
2021/11/02 09:02:26;;;;;;;92.30;38.75;;;;;;;8.26;71.52;100091.38;5089628;28;20422;-49
2021/11/02 09:05:10;;;;;;;92.38;38.63;;;;;;;8.29;71.42;100094.75;5086364;28;20383;-51
2021/11/02 09:07:37;;;;;;;80.32;37.20;;;;;;;8.12;71.71;100067.44;5067545;28;20036;-53
2021/11/02 09:10:13;;;;;;;84.85;37.08;;;;;;;8.20;71.31;100092.34;5088188;28;20044;-50
2021/11/02 09:12:43;;;;;;;86.68;38.05;;;;;;;8.18;71.31;100090.66;5087638;28;20040;-51
2021/11/02 09:15:09;;;;;;;87.60;38.05;;;;;;;8.08;71.48;100101.19;5086784;28;20040;-52
2021/11/02 09:17:41;;;;;;;89.13;37.90;;;;;;;8.01;71.40;100096.13;5069675;28;20036;-49
2021/11/02 09:20:07;;;;;;;88.30;37.72;;;;;;;7.95;72.09;100102.28;5053546;28;20055;-52
2021/11/02 09:22:33;;;;;;;84.68;36.65;;;;;;;7.90;71.79;100096.31;5087810;28;20036;-52
2021/11/02 09:25:01;;;;;;;90.20;37.97;;;;;;;7.82;71.98;100093.00;5087160;28;20055;-48
2021/11/02 09:27:27;;;;;;;83.78;39.15;;;;;;;7.82;72.06;100086.97;5088052;28;20185;-45
2021/11/02 09:29:53;;;;;;;89.15;38.88;;;;;;;7.82;72.07;100102.50;5070508;28;20040;-49
2021/11/02 09:32:21;;;;;;;94.43;39.80;;;;;;;7.61;71.99;100076.09;5087576;28;20040;-54
2021/11/02 09:34:47;;;;;;;92.20;39.20;;;;;;;7.71;72.21;100107.84;5087702;28;20052;-49
2021/11/02 09:37:18;;;;;;;88.80;41.03;;;;;;;7.69;72.05;100106.19;5088720;28;20048;-49
2021/11/02 09:39:50;;;;;;;92.03;38.10;;;;;;;7.71;72.14;100104.41;5103234;28;20457;-48
2021/11/02 09:42:54;;;;;;;92.07;38.40;;;;;;;7.76;72.04;100100.00;5069442;28;20043;-49
2021/11/02 09:45:49;;;;;;;92.20;39.63;;;;;;;7.75;71.75;100100.88;5067004;28;20047;-49
2021/11/02 09:48:53;;;;;;;93.22;39.60;;;;;;;7.76;71.73;100108.63;5081744;28;20723;-48
2021/11/02 09:51:23;;;;;;;88.05;38.63;;;;;;;7.82;71.80;100102.50;5067184;28;20575;-48
2021/11/02 09:54:02;;;;;;;84.65;37.90;;;;;;;7.80;71.87;100102.53;5089202;28;20032;-52
2021/11/02 09:57:05;;;;;;;92.57;40.63;;;;;;;7.80;72.14;100107.69;5086063;28;20456;-50
2021/11/02 09:59:40;;;;;;;89.13;38.20;;;;;;;7.83;72.22;100105.06;5038365;28;20469;-51
2021/11/02 10:02:34;;;;;;;90.45;38.92;;;;;;;7.90;71.76;100100.66;5086691;28;20044;-54
2021/11/02 10:05:39;;;;;;;82.53;37.67;;;;;;;8.01;71.40;100103.91;5069782;28;20032;-51
2021/11/02 10:08:27;;;;;;;88.35;38.92;;;;;;;8.02;71.33;100096.09;5064193;28;20739;-55
2021/11/02 10:11:01;;;;;;;99.57;41.83;;;;;;;8.02;71.48;100093.53;5086342;28;20051;-53
2021/11/02 10:13:56;;;;;;;94.03;40.72;;;;;;;7.90;71.39;100070.41;5068061;28;20039;-51
2021/11/02 10:16:49;;;;;;;98.22;43.05;;;;;;;7.98;71.46;100086.69;5082256;28;20130;-50
2021/11/02 10:19:32;;;;;;;97.13;41.67;;;;;;;8.03;71.48;100087.47;5100917;28;20039;-56
2021/11/02 10:22:06;;;;;;;102.20;42.03;;;;;;;8.00;71.44;100081.50;5083685;28;20037;-55
2021/11/02 10:25:04;;;;;;;95.93;41.63;;;;;;;7.99;71.09;100083.22;5086752;28;20097;-51
2021/11/02 10:27:48;;;;;;;91.60;41.05;;;;;;;8.01;70.77;100081.44;5069094;28;20108;-49
2021/11/02 10:30:42;;;;;;;86.40;38.95;;;;;;;8.00;70.48;100078.91;5086481;28;20032;-52
2021/11/02 10:33:18;;;;;;;77.32;37.92;;;;;;;8.00;70.62;100076.31;5052587;28;20047;-50
2021/11/02 10:35:59;;;;;;;89.78;38.03;;;;;;;7.98;70.64;100076.34;5088703;28;20032;-51
2021/11/02 10:38:28;;;;;;;84.03;37.90;;;;;;;7.91;70.95;100056.59;5076550;28;20055;-52
2021/11/02 10:40:58;;;;;;;90.88;39.53;;;;;;;8.02;70.53;100066.78;5055927;28;20100;-49
2021/11/02 10:43:38;;;;;;;88.07;38.63;;;;;;;7.94;70.70;100072.09;5086472;28;20071;-50
2021/11/02 10:46:08;;;;;;;84.50;39.30;;;;;;;7.84;70.75;100059.34;5101876;28;20043;-50
2021/11/02 10:48:50;;;;;;;79.13;38.53;;;;;;;7.88;70.72;100063.56;5070993;28;20036;-52
2021/11/02 10:51:26;;;;;;;79.70;35.78;;;;;;;7.87;70.98;100061.88;5068210;28;20147;-55
2021/11/02 10:54:00;;;;;;;79.15;37.53;;;;;;;7.74;71.24;100060.38;5069548;28;20043;-50
2021/11/02 10:56:48;;;;;;;78.75;36.33;;;;;;;7.73;71.20;100069.03;5063219;28;20062;-51
2021/11/02 10:59:17;;;;;;;76.28;35.47;;;;;;;7.74;70.76;100058.66;5065636;28;20131;-52
2021/11/02 11:01:44;;;;;;;74.47;36.70;;;;;;;7.83;70.65;100065.41;5067858;28;20044;-53
2021/11/02 11:04:13;;;;;;;80.25;37.55;;;;;;;7.96;70.33;100059.97;5069325;28;20116;-50
2021/11/02 11:06:43;;;;;;;81.50;37.53;;;;;;;8.01;69.96;100060.72;5067763;28;20044;-54
2021/11/02 11:09:12;;;;;;;;;;;;;;;7.99;70.28;100064.25;5073861;28;20040;-51
2021/11/02 11:11:59;;;;;;;77.15;36.33;;;;;;;7.94;70.62;100064.34;5064718;28;19916;-50
2021/11/02 11:14:32;;;;;;;81.22;36.35;;;;;;;7.93;70.22;100065.22;5069743;28;20043;-50
2021/11/02 11:16:58;;;;;;;84.60;36.85;;;;;;;7.87;70.40;100064.44;5068543;28;20044;-53
2021/11/02 11:19:28;;;;;;;76.07;36.55;;;;;;;7.88;69.88;100067.03;5069139;28;20041;-53
2021/11/02 11:21:56;;;;;;;72.47;35.83;;;;;;;7.93;70.29;100067.78;5062575;28;20040;-53
2021/11/02 11:24:31;;;;;;;75.13;34.88;;;;;;;8.01;69.75;100067.66;5069826;28;20514;-53
2021/11/02 11:26:57;;;;;;;69.25;35.53;;;;;;;8.07;69.86;100064.94;5072935;28;20044;-53
2021/11/02 11:29:25;;;;;;;71.97;35.80;;;;;;;8.04;69.58;100060.69;5064053;28;20042;-56
2021/11/02 11:31:54;;;;;;;75.97;35.92;;;;;;;8.07;69.67;100059.78;5061565;28;20041;-55
2021/11/02 11:34:35;;;;;;;73.13;35.20;;;;;;;7.88;69.54;100037.69;5063132;28;20044;-51
2021/11/02 11:37:09;;;;;;;70.90;33.50;;;;;;;7.90;69.88;100046.31;5063376;28;20538;-53
2021/11/02 11:39:36;;;;;;;70.72;33.70;;;;;;;7.92;69.77;100063.50;5080110;28;20772;-53
2021/11/02 11:42:02;;;;;;;78.70;33.95;;;;;;;7.88;69.68;100069.63;5074146;28;20045;-52
2021/11/02 11:44:29;;;;;;;73.88;33.85;;;;;;;7.84;69.86;100064.53;5054528;28;20405;-53
2021/11/02 11:47:10;;;;;;;69.20;34.15;;;;;;;7.74;70.14;100050.88;5053866;28;20075;-53
2021/11/02 11:49:44;;;;;;;75.22;35.35;;;;;;;7.79;70.19;100062.00;5063490;28;20037;-56
2021/11/02 11:52:10;;;;;;;79.50;35.30;;;;;;;7.79;69.99;100066.34;5066413;28;20052;-54
2021/11/02 11:54:51;;;;;;;67.78;33.70;;;;;;;7.80;70.17;100071.47;5060358;28;20033;-52
2021/11/02 11:57:39;;;;;;;75.72;34.38;;;;;;;7.75;69.92;100067.25;5067430;28;20091;-50
2021/11/02 12:00:08;;;;;;;73.50;34.28;;;;;;;7.74;70.17;100073.31;5057425;28;20119;-53
2021/11/02 12:02:58;;;;;;;77.63;35.30;;;;;;;7.65;70.26;100063.97;5069149;28;20041;-50
2021/11/02 12:05:24;;;;;;;70.15;34.08;;;;;;;7.65;70.25;100066.53;5067858;28;20041;-50
2021/11/02 12:08:16;;;;;;;75.50;35.83;;;;;;;7.60;70.52;100060.59;5082497;28;20044;-50
2021/11/02 12:10:44;;;;;;;79.32;35.53;;;;;;;7.41;70.91;100046.25;5070547;28;20060;-54
2021/11/02 12:13:12;;;;;;;76.82;34.85;;;;;;;7.38;70.88;100060.06;5069238;28;20059;-54
2021/11/02 12:15:48;;;;;;;76.65;35.03;;;;;;;7.32;71.48;100067.94;5067368;28;20091;-51
2021/11/02 12:18:19;;;;;;;74.55;34.20;;;;;;;7.27;71.37;100061.13;5070470;28;20036;-49
2021/11/02 12:20:49;;;;;;;76.88;33.95;;;;;;;7.22;71.85;100059.44;5071067;28;20051;-51
2021/11/02 12:23:17;;;;;;;71.97;33.60;;;;;;;7.17;71.98;100058.66;5070019;28;20044;-66
2021/11/02 12:25:51;;;;;;;;;;;;;;;7.17;72.33;100056.06;5068079;28;20047;-60
2021/11/02 12:28:28;;;;;;;84.53;33.50;;;;;;;7.13;72.50;100063.91;5069598;28;19924;-62
2021/11/02 12:31:17;;;;;;;77.07;35.35;;;;;;;7.16;72.41;100064.72;5069244;28;20419;-61
2021/11/02 12:33:49;;;;;;;79.85;33.13;;;;;;;7.22;72.52;100056.03;5051444;28;20040;-64
2021/11/02 12:36:21;;;;;;;80.43;35.00;;;;;;;7.25;72.53;100061.16;5068522;28;20044;-67
2021/11/02 12:38:48;;;;;;;83.78;35.25;;;;;;;7.22;72.78;100056.03;5072040;28;20051;-64
2021/11/02 12:41:16;;;;;;;76.03;33.03;;;;;;;7.22;73.24;100049.09;5071557;28;20051;-64
2021/11/02 12:43:42;;;;;;;79.10;33.92;;;;;;;7.19;73.40;100053.47;5070623;28;20040;-62
2021/11/02 12:46:09;;;;;;;75.80;32.45;;;;;;;7.14;73.29;100057.84;5064100;28;20416;-65
2021/11/02 12:48:35;;;;;;;80.05;33.03;;;;;;;7.11;73.94;100060.50;5067910;28;20033;-59
2021/11/02 12:51:03;;;;;;;81.18;34.63;;;;;;;7.00;73.70;100034.81;5070737;28;20044;-61
2021/11/02 12:53:33;;;;;;;79.97;32.83;;;;;;;7.16;73.45;100056.97;5080665;28;20036;-61
2021/11/02 12:56:14;;;;;;;76.68;31.27;;;;;;;7.13;73.54;100049.25;5051223;28;20048;-62
2021/11/02 12:58:41;;;;;;;74.18;30.13;;;;;;;7.12;74.12;100054.44;5069952;28;20049;-61
2021/11/02 13:01:08;;;;;;;68.40;30.85;;;;;;;7.08;73.82;100053.63;5067352;28;20101;-66
2021/11/02 13:03:36;;;;;;;68.80;29.55;;;;;;;7.04;73.91;100054.56;5068921;28;20032;-65
2021/11/02 13:06:08;;;;;;;72.82;31.25;;;;;;;7.03;74.27;100058.00;5052646;28;20044;-66
2021/11/02 13:08:57;;;;;;;71.32;31.45;;;;;;;7.02;74.22;100052.84;5069234;28;20037;-67
2021/11/02 13:11:25;;;;;;;76.45;30.23;;;;;;;6.97;74.48;100058.09;5068524;28;20040;-65
2021/11/02 13:14:16;;;;;;;75.25;31.85;;;;;;;6.98;74.50;100057.22;5068058;28;20033;-67
2021/11/02 13:17:01;;;;;;;73.00;30.73;;;;;;;6.98;74.88;100051.19;5066396;28;20043;-66
2021/11/02 13:19:38;;;;;;;74.07;30.92;;;;;;;6.95;74.75;100059.00;5070283;28;20160;-66
2021/11/02 13:22:16;;;;;;;70.95;30.50;;;;;;;6.98;74.99;100056.38;5052912;28;20040;-66
2021/11/02 13:25:01;;;;;;;69.60;30.60;;;;;;;6.96;74.88;100061.53;5069079;28;20075;-65
2021/11/02 13:27:35;;;;;;;71.03;30.17;;;;;;;6.94;74.82;100057.28;5064703;28;20091;-69
2021/11/02 13:30:33;;;;;;;67.43;31.13;;;;;;;6.96;75.20;100060.72;5069597;28;20068;-66
2021/11/02 13:33:15;;;;;;;72.60;30.42;;;;;;;6.97;75.11;100059.81;5065411;28;20067;-62
2021/11/02 13:35:53;;;;;;;65.55;29.00;;;;;;;6.91;74.83;100062.50;5062344;28;20064;-61
2021/11/02 13:38:29;;;;;;;69.97;29.52;;;;;;;6.91;75.37;100065.09;5064762;28;20424;-73
2021/11/02 13:40:59;;;;;;;78.53;31.63;;;;;;;6.86;75.07;100067.72;5061891;28;20064;-64
2021/11/02 13:43:32;;;;;;;67.90;28.67;;;;;;;6.82;75.63;100068.63;5067798;28;20051;-62
2021/11/02 13:45:58;;;;;;;61.25;26.77;;;;;;;6.79;75.66;100055.78;5066843;28;20051;-61
2021/11/02 13:48:26;;;;;;;64.57;28.55;;;;;;;6.86;75.53;100059.97;5069105;28;20036;-66
2021/11/02 13:50:54;;;;;;;63.78;28.40;;;;;;;6.83;75.19;100065.19;5068679;28;20131;-63
2021/11/02 13:53:24;;;;;;;63.50;27.67;;;;;;;6.72;75.91;100048.97;5065870;28;20122;-64
2021/11/02 13:55:50;;;;;;;64.82;26.60;;;;;;;6.76;75.57;100055.78;5073827;28;20528;-64
2021/11/02 13:58:17;;;;;;;58.75;26.08;;;;;;;6.72;75.74;100054.13;5069547;28;20146;-67
2021/11/02 14:00:43;;;;;;;66.90;28.52;;;;;;;6.68;75.87;100061.06;5087042;28;20101;-69
2021/11/02 14:03:12;;;;;;;60.47;28.10;;;;;;;6.62;75.89;100043.06;5053994;28;20126;-65
2021/11/02 14:05:39;;;;;;;62.20;27.70;;;;;;;6.61;76.38;100036.19;5069810;28;20043;-65
2021/11/02 14:08:06;;;;;;;59.85;27.63;;;;;;;6.73;76.43;100056.69;5104394;28;20421;-64
2021/11/02 14:10:32;;;;;;;61.05;27.30;;;;;;;6.68;75.98;100047.28;5104727;28;20089;-66
2021/11/02 14:12:58;;;;;;;68.25;28.13;;;;;;;6.62;76.59;100055.97;5103258;28;20453;-66
2021/11/02 14:15:29;;;;;;;60.00;27.48;;;;;;;6.57;76.93;100057.78;5100623;28;20066;-64
2021/11/02 14:17:57;;;;;;;64.72;29.70;;;;;;;6.54;76.91;100055.19;5087734;28;20085;-66
2021/11/02 14:20:39;;;;;;;66.13;26.20;;;;;;;6.57;77.05;100049.16;5067687;28;20395;-65
2021/11/02 14:23:21;;;;;;;58.58;27.55;;;;;;;6.58;76.65;100051.72;5085083;28;20040;-66
2021/11/02 14:25:47;;;;;;;64.03;26.10;;;;;;;6.55;76.92;100044.00;5069113;28;20051;-65
2021/11/02 14:28:30;;;;;;;59.28;25.17;;;;;;;6.52;77.04;100046.63;5088727;28;20422;-65
2021/11/02 14:30:55;;;;;;;61.85;26.70;;;;;;;6.45;77.37;100038.97;5086542;28;20046;-66
2021/11/02 14:33:22;;;;;;;62.28;26.35;;;;;;;6.49;77.46;100035.50;5076048;28;20040;-67
2021/11/02 14:35:54;;;;;;;61.83;28.48;;;;;;;6.52;77.93;100045.78;5076491;28;20075;-67
2021/11/02 14:38:23;;;;;;;71.18;29.60;;;;;;;6.51;77.78;100047.50;5084376;28;20048;-69
2021/11/02 14:40:51;;;;;;;65.20;28.13;;;;;;;6.49;77.80;100038.09;5071511;28;20514;-71
2021/11/02 14:43:23;;;;;;;70.57;28.13;;;;;;;6.33;77.97;100021.91;5088034;28;20035;-72
2021/11/02 14:45:53;;;;;;;72.50;29.63;;;;;;;6.43;78.15;100046.75;5083827;28;20540;-67
2021/11/02 14:48:24;;;;;;;75.53;29.17;;;;;;;6.43;78.42;100051.06;5085866;28;20067;-67
2021/11/02 14:50:51;;;;;;;77.50;30.17;;;;;;;6.36;78.40;100042.53;5088462;28;20132;-71
2021/11/02 14:53:25;;;;;;;76.57;29.77;;;;;;;6.18;78.71;100032.38;5090649;28;20036;-66
2021/11/02 14:55:57;;;;;;;68.82;28.77;;;;;;;6.26;79.27;100043.50;5088543;28;20610;-66
2021/11/02 14:58:49;;;;;;;81.15;30.40;;;;;;;6.27;79.36;100037.47;5088394;28;20085;-69
2021/11/02 15:01:33;;;;;;;67.57;28.15;;;;;;;6.29;79.61;100033.13;5086064;28;20048;-55
2021/11/02 15:04:04;;;;;;;69.63;27.85;;;;;;;6.26;79.49;100020.25;5054298;28;20534;-68
2021/11/02 15:06:38;;;;;;;67.95;28.05;;;;;;;6.31;79.78;100023.66;5089260;28;20096;-68
2021/11/02 15:09:06;;;;;;;72.97;27.73;;;;;;;6.30;79.50;100017.63;5054818;28;20040;-65
2021/11/02 15:11:32;;;;;;;68.70;27.52;;;;;;;6.28;79.97;100018.53;5088906;28;20427;-67
2021/11/02 15:14:04;;;;;;;64.65;26.67;;;;;;;6.30;79.33;100015.03;5089033;28;20054;-71
2021/11/02 15:16:30;;;;;;;66.57;27.00;;;;;;;6.23;79.40;100003.06;5079686;28;20139;-67
2021/11/02 15:19:00;;;;;;;64.32;27.58;;;;;;;6.27;79.69;100025.41;5088866;28;20162;-70
2021/11/02 15:21:39;;;;;;;65.78;27.40;;;;;;;6.18;79.40;100038.41;5082563;28;20044;-69
2021/11/02 15:24:09;;;;;;;62.78;25.60;;;;;;;6.13;79.96;100040.19;5088987;28;20036;-67
2021/11/02 15:26:43;;;;;;;64.22;26.30;;;;;;;6.12;80.12;100027.31;5054484;28;20039;-63
2021/11/02 15:29:11;;;;;;;64.70;25.13;;;;;;;6.07;80.27;100013.59;5071144;28;20076;-66
2021/11/02 15:31:37;;;;;;;62.58;25.10;;;;;;;6.14;80.15;100018.66;5070119;28;20040;-54
2021/11/02 15:34:15;;;;;;;55.60;23.13;;;;;;;6.12;80.05;100022.16;5087165;28;20036;-68
2021/11/02 15:36:43;;;;;;;53.38;23.50;;;;;;;6.08;79.90;100023.88;5071222;28;20040;-60
2021/11/02 15:39:09;;;;;;;58.33;23.05;;;;;;;6.03;79.77;100014.50;5088739;28;20533;-76
2021/11/02 15:41:35;;;;;;;52.22;22.38;;;;;;;6.00;80.21;100014.53;5089534;28;20067;-74
2021/11/02 15:44:06;;;;;;;58.88;22.70;;;;;;;5.90;80.23;100030.13;5070792;28;20764;-71
2021/11/02 15:46:42;;;;;;;61.05;23.58;;;;;;;5.88;80.30;100028.41;5076336;28;20040;-68
2021/11/02 15:49:13;;;;;;;50.83;21.50;;;;;;;5.88;80.22;100021.53;5039589;28;20047;-61
2021/11/02 15:51:41;;;;;;;51.33;21.75;;;;;;;5.85;80.41;100021.53;5089718;28;20036;-62
2021/11/02 15:54:12;;;;;;;54.97;22.02;;;;;;;5.81;80.50;100037.06;5089082;28;20036;-64
2021/11/02 15:56:40;;;;;;;48.47;19.77;;;;;;;5.76;80.30;100031.91;5088425;28;20048;-68
2021/11/02 15:59:08;;;;;;;49.97;20.67;;;;;;;5.75;80.59;100040.56;5080573;28;20047;-63
2021/11/02 16:01:45;;;;;;;50.03;21.67;;;;;;;5.75;80.46;100037.97;5048095;28;20048;-54
2021/11/02 16:04:13;;;;;;;53.58;21.55;;;;;;;5.70;80.68;100039.75;5076777;28;20040;-59
2021/11/02 16:07:11;;;;;;;50.05;21.17;;;;;;;5.67;80.84;100034.59;5070661;28;20040;-69
2021/11/02 16:09:50;;;;;;;49.25;21.05;;;;;;;5.68;80.43;100041.47;5080109;28;20039;-68
2021/11/02 16:12:32;;;;;;;45.95;19.80;;;;;;;5.63;80.60;100034.63;5067565;28;20204;-66
2021/11/02 16:15:20;;;;;;;48.97;19.85;;;;;;;5.59;80.56;100043.28;5084351;28;20580;-68
2021/11/02 16:17:52;;;;;;;51.70;22.40;;;;;;;5.58;80.87;100036.41;5086093;28;20063;-64
2021/11/02 16:20:20;;;;;;;48.67;20.38;;;;;;;5.60;80.47;100042.41;5074317;28;20043;-61
2021/11/02 16:22:51;;;;;;;47.60;20.95;;;;;;;5.60;80.33;100039.84;5084785;28;20052;-62
2021/11/02 16:25:17;;;;;;;42.67;19.85;;;;;;;5.53;80.68;100021.84;5071963;28;20060;-65
2021/11/02 16:28:06;;;;;;;52.20;21.80;;;;;;;5.60;81.13;100035.50;5077015;28;20479;-63
2021/11/02 16:30:34;;;;;;;47.53;21.23;;;;;;;5.62;81.32;100035.50;5059377;28;20415;-64
2021/11/02 16:33:00;;;;;;;51.95;19.58;;;;;;;5.47;81.03;100023.59;5055950;28;20036;-63
2021/11/02 16:35:46;;;;;;;48.83;21.40;;;;;;;5.53;81.12;100031.28;5074423;28;20124;-65
2021/11/02 16:38:23;;;;;;;51.72;20.52;;;;;;;5.50;80.90;100039.88;5055331;28;20040;-66
2021/11/02 16:41:02;;;;;;;46.65;19.77;;;;;;;5.55;81.10;100032.97;5074605;28;20066;-62
2021/11/02 16:43:40;;;;;;;48.75;20.50;;;;;;;5.58;81.22;100026.94;5062406;28;20505;-65
2021/11/02 16:46:10;;;;;;;46.42;20.52;;;;;;;5.63;81.13;100038.06;5085992;28;20507;-64
2021/11/02 16:48:46;;;;;;;43.33;21.20;;;;;;;5.66;80.69;100038.03;5076360;28;20475;-64
2021/11/02 16:51:15;;;;;;;47.60;19.98;;;;;;;5.67;80.87;100029.44;5059147;28;20855;-63
2021/11/02 16:53:43;;;;;;;45.50;21.02;;;;;;;5.72;80.44;100029.38;5084713;28;20792;-64
2021/11/02 16:56:26;;;;;;;45.03;20.58;;;;;;;5.72;79.85;100024.22;5089006;28;20469;-62
2021/11/02 16:58:54;;;;;;;49.88;20.92;;;;;;;5.68;80.40;100027.72;5080715;28;20177;-65
2021/11/02 17:01:39;;;;;;;53.35;21.55;;;;;;;5.64;80.66;100033.78;5057631;28;20104;-64
2021/11/02 17:04:13;;;;;;;46.58;20.58;;;;;;;5.65;80.44;100033.78;5074630;28;20541;-66
2021/11/02 17:06:39;;;;;;;42.22;20.55;;;;;;;5.68;80.48;100032.88;5085597;28;20064;-64
2021/11/02 17:09:06;;;;;;;48.38;20.95;;;;;;;5.71;79.95;100028.53;5088330;28;20071;-65
2021/11/02 17:11:50;;;;;;;53.78;21.52;;;;;;;5.70;80.24;100029.44;5070059;28;20055;-64
2021/11/02 17:14:17;;;;;;;49.70;19.98;;;;;;;5.72;80.27;100035.41;5062027;28;20780;-64
2021/11/02 17:16:44;;;;;;;45.13;20.80;;;;;;;5.69;80.45;100025.13;5084590;28;20502;-66
2021/11/02 17:19:10;;;;;;;43.20;20.70;;;;;;;5.68;79.94;100035.44;5080819;28;20059;-64
2021/11/02 17:21:38;;;;;;;46.13;20.05;;;;;;;5.64;79.65;100033.78;5059511;28;20069;-63
2021/11/02 17:24:06;;;;;;;42.28;19.05;;;;;;;5.64;80.04;100029.47;5061991;28;20037;-65
2021/11/02 17:26:33;;;;;;;45.10;20.73;;;;;;;5.56;79.93;100008.03;5075963;28;20039;-63
2021/11/02 17:29:00;;;;;;;45.80;20.58;;;;;;;5.67;80.54;100020.84;5059425;28;20511;-65
2021/11/02 17:31:39;;;;;;;49.05;19.23;;;;;;;5.58;79.84;100011.47;5041785;28;20522;-63
2021/11/02 17:34:20;;;;;;;42.50;19.08;;;;;;;5.63;80.04;100014.00;5072978;28;20032;-64
2021/11/02 17:36:46;;;;;;;46.47;19.27;;;;;;;5.65;80.23;100023.47;5080597;28;20292;-63
2021/11/02 17:39:13;;;;;;;40.83;19.27;;;;;;;5.66;80.50;100017.41;5086370;28;20506;-63
2021/11/02 17:41:39;;;;;;;47.08;19.55;;;;;;;5.70;80.39;100023.41;5050579;28;20040;-64
2021/11/02 17:44:05;;;;;;;49.30;21.42;;;;;;;5.70;80.15;100019.09;5063405;28;20032;-62
2021/11/02 17:46:31;;;;;;;41.58;19.13;;;;;;;5.70;80.40;100015.66;5071595;28;20178;-66
2021/11/02 17:48:58;;;;;;;40.78;18.42;;;;;;;5.73;80.23;100015.63;5069099;28;20529;-64
2021/11/02 17:51:25;;;;;;;41.17;19.75;;;;;;;5.77;80.39;100015.56;5055955;28;20040;-65
2021/11/02 17:53:51;;;;;;;42.50;20.52;;;;;;;5.80;80.05;100023.31;5055108;28;20079;-64
2021/11/02 17:56:18;;;;;;;36.72;17.88;;;;;;;5.82;80.14;100023.28;5055660;28;20155;-64
2021/11/02 17:58:45;;;;;;;43.25;18.60;;;;;;;5.81;79.66;100017.25;5076437;28;20518;-64
2021/11/02 18:01:13;;;;;;;38.33;17.80;;;;;;;5.81;79.45;100027.56;5072487;28;20509;-64
2021/11/02 18:03:42;;;;;;;38.95;18.52;;;;;;;5.79;79.63;100021.59;5068956;28;20423;-66
2021/11/02 18:06:10;;;;;;;42.83;18.95;;;;;;;5.79;80.00;100018.16;5053251;28;20040;-62
2021/11/02 18:08:38;;;;;;;41.85;18.63;;;;;;;5.78;80.01;100027.63;5069984;28;20040;-67
2021/11/02 18:11:06;;;;;;;42.05;18.42;;;;;;;5.81;80.08;100027.56;5076094;28;20047;-65
2021/11/02 18:13:33;;;;;;;45.95;18.65;;;;;;;5.85;79.80;100026.69;5074027;28;20143;-67
2021/11/02 18:16:07;;;;;;;40.95;17.67;;;;;;;5.90;79.24;100031.84;5058486;28;20112;-66
2021/11/02 18:18:37;;;;;;;40.42;18.98;;;;;;;5.83;79.15;100012.94;5072544;28;20123;-67
2021/11/02 18:21:17;;;;;;;42.22;18.48;;;;;;;5.94;78.92;100030.94;5069848;28;20597;-67
2021/11/02 18:23:46;;;;;;;34.25;16.67;;;;;;;5.97;79.14;100024.91;5058236;28;20550;-67
2021/11/02 18:26:13;;;;;;;40.15;18.05;;;;;;;6.02;79.13;100023.13;5093285;28;20857;-67
2021/11/02 18:28:39;;;;;;;35.40;16.52;;;;;;;6.01;78.47;100022.28;5093285;28;20032;-67
2021/11/02 18:31:05;;;;;;;39.17;17.77;;;;;;;6.04;78.45;100032.53;5069976;28;20055;-67
2021/11/02 18:33:32;;;;;;;35.17;16.38;;;;;;;6.06;78.93;100025.66;5054855;28;20178;-69
2021/11/02 18:35:58;;;;;;;36.17;16.75;;;;;;;6.06;78.50;100040.28;5083606;28;20044;-65
2021/11/02 18:38:28;;;;;;;38.92;18.52;;;;;;;5.97;78.44;100015.41;5069532;28;20040;-66
2021/11/02 18:40:56;;;;;;;40.42;17.63;;;;;;;5.93;78.96;100022.34;5052783;28;20055;-66